createdAt,value
2024-01-11T00:01:39.422Z,65.55
2024-01-11T00:04:17.463Z,65.41
2024-01-11T00:06:58.758Z,65.51
2024-01-11T00:09:45.218Z,65.58
2024-01-11T00:12:25.878Z,64.99
2024-01-11T00:15:01.757Z,65.21
2024-01-11T00:17:41.374Z,65.49
2024-01-11T00:20:12.760Z,65.40
2024-01-11T00:22:48.205Z,64.87
2024-01-11T00:25:36.701Z,65.08
2024-01-11T00:28:22.830Z,65.58
2024-01-11T00:31:09.679Z,65.63
2024-01-11T00:33:50.566Z,65.43
2024-01-11T00:36:31.448Z,65.17
2024-01-11T00:39:12.098Z,65.08
2024-01-11T00:41:52.631Z,64.92
2024-01-11T00:44:34.775Z,64.77
2024-01-11T00:47:13.075Z,64.72
2024-01-11T00:49:56.562Z,64.58
2024-01-11T00:52:39.784Z,64.70
2024-01-11T00:55:18.630Z,64.56
2024-01-11T00:58:01.794Z,64.64
2024-01-11T01:00:40.311Z,64.76
2024-01-11T01:03:31.993Z,64.78
2024-01-11T01:06:10.840Z,64.70
2024-01-11T01:08:43.526Z,64.78
2024-01-11T01:11:21.120Z,64.78
2024-01-11T01:13:59.350Z,64.71
2024-01-11T01:16:43.156Z,64.76
2024-01-11T01:19:21.599Z,64.71
2024-01-11T01:22:02.451Z,64.98
2024-01-11T01:24:40.847Z,65.08
2024-01-11T01:27:21.987Z,65.07
2024-01-11T01:30:00.550Z,65.15
2024-01-11T01:32:36.829Z,65.13
2024-01-11T01:35:14.638Z,65.24
2024-01-11T01:37:50.370Z,64.77
2024-01-11T01:40:30.769Z,65.02
2024-01-11T01:43:14.859Z,64.56
2024-01-11T01:45:53.813Z,64.51
2024-01-11T01:48:35.142Z,64.43
2024-01-11T01:51:16.280Z,64.57
2024-01-11T01:53:57.472Z,64.17
2024-01-11T01:56:33.084Z,64.17
2024-01-11T01:59:10.027Z,64.46
2024-01-11T02:01:51.143Z,64.61
2024-01-11T02:04:32.399Z,64.57
2024-01-11T02:07:13.267Z,64.72
2024-01-11T02:09:53.083Z,65.08
2024-01-11T02:12:32.250Z,65.24
2024-01-11T02:15:12.364Z,65.35
2024-01-11T02:17:49.456Z,65.46
2024-01-11T02:20:34.268Z,66.24
2024-01-11T02:23:22.033Z,66.00
2024-01-11T02:26:03.143Z,65.81
2024-01-11T02:28:38.673Z,65.07
2024-01-11T02:31:20.214Z,65.23
2024-01-11T02:33:58.757Z,65.41
2024-01-11T02:36:34.973Z,65.43
2024-01-11T02:39:07.980Z,65.54
2024-01-11T02:41:51.523Z,65.26
2024-01-11T02:44:32.436Z,65.34
2024-01-11T02:47:07.327Z,65.66
2024-01-11T02:49:46.035Z,65.45
2024-01-11T02:52:26.739Z,65.59
2024-01-11T02:55:08.468Z,65.45
2024-01-11T02:57:50.119Z,65.73
2024-01-11T03:00:28.029Z,65.58
2024-01-11T03:03:06.561Z,65.92
2024-01-11T03:05:44.184Z,65.83
2024-01-11T03:08:19.327Z,65.92
2024-01-11T03:11:05.287Z,65.80
2024-01-11T03:13:46.292Z,65.75
2024-01-11T03:16:25.570Z,65.53
2024-01-11T03:19:04.881Z,65.71
2024-01-11T03:21:46.291Z,65.90
2024-01-11T03:24:27.530Z,65.90
2024-01-11T03:27:08.660Z,66.09
2024-01-11T03:29:54.651Z,66.13
2024-01-11T03:32:29.594Z,66.47
2024-01-11T03:35:11.111Z,66.36
2024-01-11T03:37:52.809Z,66.28
2024-01-11T03:40:33.475Z,66.20
2024-01-11T03:43:14.147Z,66.35
2024-01-11T03:45:52.393Z,66.17
2024-01-11T03:48:33.135Z,66.09
2024-01-11T03:51:14.457Z,66.24
2024-01-11T03:53:52.722Z,66.34
2024-01-11T03:56:38.563Z,66.35
2024-01-11T03:59:14.096Z,66.43
2024-01-11T04:01:54.703Z,66.89
2024-01-11T04:04:35.790Z,66.37
2024-01-11T04:07:18.500Z,66.38
2024-01-11T04:09:59.742Z,66.18
2024-01-11T04:12:40.588Z,66.03
2024-01-11T04:15:19.263Z,65.83
2024-01-11T04:17:57.621Z,66.03
2024-01-11T04:20:36.839Z,65.92
2024-01-11T04:23:14.226Z,66.11
2024-01-11T04:25:55.464Z,66.19
2024-01-11T04:28:36.668Z,65.97
2024-01-11T04:31:17.421Z,65.84
2024-01-11T04:33:58.912Z,65.60
2024-01-11T04:36:43.823Z,65.35
2024-01-11T04:39:27.856Z,65.31
2024-01-11T04:42:06.175Z,65.54
2024-01-11T04:44:44.057Z,65.13
2024-01-11T04:47:21.963Z,65.02
2024-01-11T04:50:00.842Z,65.26
2024-01-11T04:52:38.740Z,65.02
2024-01-11T04:55:16.799Z,64.71
2024-01-11T04:57:54.934Z,64.92
2024-01-11T05:00:41.338Z,65.07
2024-01-11T05:03:22.267Z,64.96
2024-01-11T05:06:05.394Z,64.77
2024-01-11T05:08:40.632Z,64.68
2024-01-11T05:11:25.844Z,64.91
2024-01-11T05:14:01.799Z,64.71
2024-01-11T05:16:43.537Z,64.77
2024-01-11T05:19:21.693Z,65.11
2024-01-11T05:22:02.403Z,65.09
2024-01-11T05:24:41.767Z,65.49
2024-01-11T05:27:22.626Z,65.26
2024-01-11T05:30:06.138Z,65.07
2024-01-11T05:32:44.508Z,65.09
2024-01-11T05:35:25.463Z,65.43
2024-01-11T05:38:09.184Z,65.48
2024-01-11T05:40:47.321Z,65.63
2024-01-11T05:43:25.323Z,65.98
2024-01-11T05:46:09.170Z,65.62
2024-01-11T05:48:49.897Z,65.56
2024-01-11T05:51:33.297Z,65.77
2024-01-11T05:54:09.321Z,65.96
2024-01-11T05:56:47.117Z,65.90
2024-01-11T05:59:24.742Z,66.11
2024-01-11T06:02:03.266Z,65.92
2024-01-11T06:04:47.120Z,65.80
2024-01-11T06:07:32.619Z,65.71
2024-01-11T06:10:16.858Z,65.90
2024-01-11T06:12:57.718Z,66.15
2024-01-11T06:15:45.823Z,66.11
2024-01-11T06:18:21.081Z,66.58
2024-01-11T06:21:00.584Z,66.64
2024-01-11T06:23:40.834Z,66.66
2024-01-11T06:26:17.940Z,66.84
2024-01-11T06:28:59.909Z,66.79
2024-01-11T06:31:37.926Z,66.44
2024-01-11T06:34:13.041Z,66.42
2024-01-11T06:36:51.142Z,66.09
2024-01-11T06:39:34.275Z,66.24
2024-01-11T06:42:12.110Z,66.04
2024-01-11T06:44:49.972Z,65.78
2024-01-11T06:47:30.618Z,66.15
2024-01-11T06:50:11.634Z,66.12
2024-01-11T06:52:52.671Z,66.12
2024-01-11T06:55:33.638Z,66.35
2024-01-11T06:58:14.560Z,66.58
2024-01-11T07:00:50.957Z,66.10
2024-01-11T07:03:32.022Z,66.20
2024-01-11T07:06:11.311Z,65.93
2024-01-11T07:08:54.486Z,66.02
2024-01-11T07:11:32.178Z,66.14
2024-01-11T07:14:15.319Z,66.75
2024-01-11T07:16:56.063Z,66.43
2024-01-11T07:19:39.889Z,66.70
2024-01-11T07:22:17.786Z,66.56
2024-01-11T07:24:59.041Z,66.84
2024-01-11T07:27:37.335Z,66.85
2024-01-11T07:30:16.069Z,66.85
2024-01-11T07:32:55.717Z,67.20
2024-01-11T07:35:28.946Z,67.33
2024-01-11T07:38:07.115Z,67.85
2024-01-11T07:40:48.109Z,68.51
2024-01-11T07:43:31.684Z,68.27
2024-01-11T07:46:15.612Z,69.06
2024-01-11T07:48:53.903Z,69.46
2024-01-11T07:51:31.801Z,69.60
2024-01-11T07:54:06.973Z,70.10
2024-01-11T07:56:44.764Z,70.46
2024-01-11T07:59:23.179Z,70.46
2024-01-11T08:02:00.628Z,71.14
2024-01-11T08:04:47.235Z,71.00
2024-01-11T08:07:26.538Z,70.99
2024-01-11T08:10:05.600Z,70.78
2024-01-11T08:12:41.409Z,71.66
2024-01-11T08:15:22.973Z,71.13
2024-01-11T08:17:58.393Z,71.55
2024-01-11T08:20:36.511Z,70.82
2024-01-11T08:23:11.867Z,70.90
2024-01-11T08:25:51.522Z,70.65
2024-01-11T08:28:27.657Z,70.18
2024-01-11T08:31:07.778Z,69.16
2024-01-11T08:33:50.816Z,68.44
2024-01-11T08:36:34.315Z,67.99
2024-01-11T08:39:15.235Z,67.28
2024-01-11T08:41:58.871Z,67.38
2024-01-11T08:44:34.502Z,66.60
2024-01-11T08:47:10.896Z,66.55
2024-01-11T08:49:45.834Z,66.38
2024-01-11T08:52:23.839Z,65.07
2024-01-11T08:54:56.296Z,65.18
2024-01-11T08:57:37.590Z,63.47
2024-01-11T09:00:19.364Z,63.15
2024-01-11T09:02:54.698Z,62.92
2024-01-11T09:05:32.875Z,62.80
2024-01-11T09:08:03.639Z,63.02
2024-01-11T09:10:42.719Z,64.30
2024-01-11T09:13:17.460Z,63.24
2024-01-11T09:15:53.254Z,61.89
2024-01-11T09:18:28.256Z,62.22
2024-01-11T09:21:06.032Z,61.42
2024-01-11T09:23:43.672Z,61.71
2024-01-11T09:26:16.488Z,61.36
2024-01-11T09:28:51.054Z,61.41
2024-01-11T09:31:23.716Z,61.00
2024-01-11T09:33:59.909Z,60.80
2024-01-11T09:36:34.923Z,60.08
2024-01-11T09:39:06.985Z,60.01
2024-01-11T09:41:46.948Z,59.66
2024-01-11T09:44:16.801Z,59.69
2024-01-11T09:46:55.064Z,59.03
2024-01-11T09:49:29.292Z,58.94
2024-01-11T09:52:02.685Z,59.05
2024-01-11T09:54:38.513Z,58.75
2024-01-11T09:57:11.621Z,58.30
2024-01-11T09:59:44.323Z,58.39
2024-01-11T10:02:16.682Z,57.53
2024-01-11T10:04:47.706Z,57.00
2024-01-11T10:07:21.957Z,56.63
2024-01-11T10:09:55.314Z,56.34
2024-01-11T10:12:41.996Z,55.79
2024-01-11T10:15:12.375Z,54.78
2024-01-11T10:17:54.711Z,54.96
2024-01-11T10:20:30.074Z,53.45
2024-01-11T10:23:05.653Z,51.19
2024-01-11T10:25:42.055Z,51.23
2024-01-11T10:28:19.810Z,49.90
2024-01-11T10:30:54.372Z,49.14
2024-01-11T10:33:22.807Z,47.99
2024-01-11T10:35:52.895Z,49.06
2024-01-11T10:38:25.758Z,48.57
2024-01-11T10:41:03.976Z,49.94
2024-01-11T10:43:46.643Z,47.36
2024-01-11T10:46:18.088Z,48.79
2024-01-11T10:48:58.937Z,48.12
2024-01-11T10:51:35.477Z,47.13
2024-01-11T10:54:08.315Z,45.88
2024-01-11T10:56:46.526Z,46.39
2024-01-11T10:59:19.641Z,46.63
2024-01-11T11:01:52.968Z,45.29
2024-01-11T11:04:26.113Z,44.33
2024-01-11T11:07:02.277Z,43.77
2024-01-11T11:09:36.925Z,43.23
2024-01-11T11:12:12.458Z,43.30
2024-01-11T11:14:45.399Z,41.60
2024-01-11T11:17:16.139Z,41.68
2024-01-11T11:19:50.898Z,42.40
2024-01-11T11:22:26.016Z,42.49
2024-01-11T11:25:26.462Z,42.52
2024-01-11T11:28:01.093Z,41.43
2024-01-11T11:30:40.678Z,41.40
2024-01-11T11:33:24.978Z,41.27
2024-01-11T11:36:18.606Z,41.05
2024-01-11T11:38:51.421Z,40.67
2024-01-11T11:41:27.996Z,40.73
2024-01-11T11:44:08.128Z,41.01
2024-01-11T11:46:41.576Z,41.23
2024-01-11T11:49:11.710Z,40.66
2024-01-11T11:51:47.987Z,41.13
2024-01-11T11:54:19.860Z,40.65
2024-01-11T11:56:49.573Z,40.66
2024-01-11T11:59:30.128Z,40.40
2024-01-11T12:02:03.406Z,39.33
2024-01-11T12:04:42.800Z,39.88
2024-01-11T12:07:18.320Z,39.35
2024-01-11T12:09:51.259Z,40.11
2024-01-11T12:12:26.155Z,38.59
2024-01-11T12:15:01.482Z,40.22
2024-01-11T12:17:34.447Z,40.16
2024-01-11T12:20:07.128Z,40.67
2024-01-11T12:22:39.611Z,39.71
2024-01-11T12:25:10.381Z,40.00
2024-01-11T12:27:41.543Z,39.51
2024-01-11T12:30:18.250Z,40.87
2024-01-11T12:32:56.486Z,39.97
2024-01-11T12:35:31.909Z,41.07
2024-01-11T12:38:11.122Z,40.37
2024-01-11T12:40:47.564Z,40.61
2024-01-11T12:43:20.913Z,40.49
2024-01-11T12:45:59.735Z,40.77
2024-01-11T12:48:32.941Z,41.42
2024-01-11T12:51:11.087Z,40.13
2024-01-11T12:53:51.330Z,39.66
2024-01-11T12:56:24.590Z,40.04
2024-01-11T12:59:08.719Z,39.84
2024-01-11T13:01:47.634Z,40.53
2024-01-11T13:04:20.400Z,41.20
2024-01-11T13:06:53.223Z,40.26
2024-01-11T13:09:28.256Z,39.37
2024-01-11T13:12:01.794Z,39.45
2024-01-11T13:14:34.132Z,39.53
2024-01-11T13:17:03.794Z,39.92
2024-01-11T13:19:40.193Z,40.53
2024-01-11T13:22:13.052Z,40.34
2024-01-11T13:24:44.812Z,40.99
2024-01-11T13:27:21.928Z,39.88
2024-01-11T13:29:58.156Z,39.88
2024-01-11T13:32:28.587Z,39.35
2024-01-11T13:34:59.630Z,39.53
2024-01-11T13:37:34.400Z,39.25
2024-01-11T13:40:10.962Z,39.53
2024-01-11T13:42:44.661Z,39.14
2024-01-11T13:45:24.601Z,39.24
2024-01-11T13:47:55.379Z,39.16
2024-01-11T13:50:31.292Z,39.40
2024-01-11T13:53:01.943Z,38.57
2024-01-11T13:55:41.448Z,39.35
2024-01-11T13:58:20.140Z,38.85
2024-01-11T14:00:54.555Z,39.12
2024-01-11T14:03:25.046Z,39.11
2024-01-11T14:06:01.885Z,39.07
2024-01-11T14:08:39.610Z,38.87
2024-01-11T14:11:15.199Z,39.55
2024-01-11T14:13:46.572Z,40.22
2024-01-11T14:16:19.635Z,39.36
2024-01-11T14:18:52.315Z,39.38
2024-01-11T14:21:27.344Z,39.25
2024-01-11T14:23:57.846Z,39.17
2024-01-11T14:26:35.665Z,39.67
2024-01-11T14:29:08.828Z,40.09
2024-01-11T14:31:41.783Z,39.75
2024-01-11T14:34:12.065Z,40.01
2024-01-11T14:36:46.692Z,40.10
2024-01-11T14:39:21.437Z,40.40
2024-01-11T14:42:02.165Z,41.13
2024-01-11T14:44:37.946Z,41.50
2024-01-11T14:47:13.527Z,41.01
2024-01-11T14:49:54.001Z,41.53
2024-01-11T14:52:32.224Z,40.50
2024-01-11T14:55:05.251Z,40.77
2024-01-11T14:57:37.405Z,39.12
2024-01-11T15:00:14.772Z,38.66
2024-01-11T15:02:47.166Z,38.42
2024-01-11T15:05:19.307Z,38.17
2024-01-11T15:07:52.673Z,38.30
2024-01-11T15:10:24.750Z,38.44
2024-01-11T15:12:56.650Z,37.91
2024-01-11T15:15:33.855Z,38.41
2024-01-11T15:18:06.909Z,38.48
2024-01-11T15:20:38.928Z,38.93
2024-01-11T15:23:11.768Z,39.08
2024-01-11T15:25:51.138Z,39.53
2024-01-11T15:28:26.269Z,40.16
2024-01-11T15:30:58.591Z,40.73
2024-01-11T15:33:33.263Z,41.32
2024-01-11T15:36:11.737Z,41.62
2024-01-11T15:38:46.691Z,41.96
2024-01-11T15:41:22.804Z,42.54
2024-01-11T15:43:52.552Z,42.94
2024-01-11T15:46:25.986Z,43.38
2024-01-11T15:48:53.771Z,43.55
2024-01-11T15:51:29.121Z,44.02
2024-01-11T15:54:04.559Z,44.63
2024-01-11T15:56:36.745Z,45.26
2024-01-11T15:59:12.317Z,45.90
2024-01-11T16:01:56.579Z,46.46
2024-01-11T16:04:40.537Z,47.13
2024-01-11T16:07:15.719Z,47.46
2024-01-11T16:09:49.394Z,47.71
2024-01-11T16:12:25.238Z,47.81
2024-01-11T16:14:59.302Z,47.91
2024-01-11T16:17:34.488Z,48.47
2024-01-11T16:20:08.347Z,48.25
2024-01-11T16:22:38.585Z,47.78
2024-01-11T16:25:14.004Z,47.99
2024-01-11T16:27:49.304Z,48.47
2024-01-11T16:30:22.404Z,48.29
2024-01-11T16:32:54.987Z,48.01
2024-01-11T16:35:29.037Z,48.08
2024-01-11T16:38:04.348Z,49.57
2024-01-11T16:40:39.996Z,50.27
2024-01-11T16:43:12.040Z,49.84
2024-01-11T16:45:47.625Z,50.11
2024-01-11T16:48:22.821Z,50.63
2024-01-11T16:50:55.925Z,50.79
2024-01-11T16:53:33.354Z,51.32
2024-01-11T16:56:11.206Z,51.70
2024-01-11T16:58:46.260Z,52.41
2024-01-11T17:01:26.315Z,52.40
2024-01-11T17:03:58.228Z,53.00
2024-01-11T17:06:33.435Z,52.89
2024-01-11T17:09:12.441Z,53.20
2024-01-11T17:11:44.278Z,53.58
2024-01-11T17:14:18.834Z,53.17
2024-01-11T17:16:48.757Z,52.86
2024-01-11T17:19:25.861Z,53.10
2024-01-11T17:22:00.903Z,53.17
2024-01-11T17:24:31.606Z,53.08
2024-01-11T17:27:10.930Z,53.19
2024-01-11T17:29:41.745Z,52.83
2024-01-11T17:32:13.318Z,52.94
2024-01-11T17:34:53.442Z,52.74
2024-01-11T17:37:26.457Z,52.42
2024-01-11T17:40:02.437Z,52.10
2024-01-11T17:42:35.345Z,51.92
2024-01-11T17:45:07.658Z,51.60
2024-01-11T17:47:40.784Z,51.72
2024-01-11T17:50:13.321Z,51.89
2024-01-11T17:52:48.824Z,51.80
2024-01-11T17:55:22.568Z,51.54
2024-01-11T17:57:59.494Z,51.30
2024-01-11T18:00:31.230Z,51.09
2024-01-11T18:03:08.621Z,50.59
2024-01-11T18:05:43.103Z,50.99
2024-01-11T18:08:13.342Z,51.19
2024-01-11T18:10:48.130Z,51.41
2024-01-11T18:13:25.787Z,50.90
2024-01-11T18:15:58.987Z,50.92
2024-01-11T18:18:31.348Z,51.09
2024-01-11T18:21:06.345Z,51.30
2024-01-11T18:23:43.642Z,51.38
2024-01-11T18:26:22.261Z,51.53
2024-01-11T18:28:57.917Z,51.71
2024-01-11T18:31:25.493Z,51.51
2024-01-11T18:34:02.043Z,51.45
2024-01-11T18:36:35.112Z,51.32
2024-01-11T18:39:13.389Z,51.23
2024-01-11T18:41:44.271Z,51.44
2024-01-11T18:44:14.767Z,51.73
2024-01-11T18:46:46.705Z,52.04
2024-01-11T18:49:27.880Z,51.15
2024-01-11T18:52:03.124Z,51.89
2024-01-11T18:54:35.672Z,52.33
2024-01-11T18:57:07.930Z,51.88
2024-01-11T18:59:44.996Z,51.62
2024-01-11T19:02:16.468Z,51.19
2024-01-11T19:04:49.575Z,51.61
2024-01-11T19:07:19.696Z,51.67
2024-01-11T19:09:52.175Z,51.70
2024-01-11T19:12:27.533Z,51.15
2024-01-11T19:15:00.242Z,51.25
2024-01-11T19:17:30.927Z,51.26
2024-01-11T19:20:04.429Z,51.41
2024-01-11T19:22:36.839Z,51.54
2024-01-11T19:25:09.176Z,51.56
2024-01-11T19:27:40.575Z,50.94
2024-01-11T19:30:12.933Z,50.61
2024-01-11T19:32:48.348Z,50.95
2024-01-11T19:35:23.797Z,50.50
2024-01-11T19:37:54.588Z,50.71
2024-01-11T19:40:29.306Z,50.62
2024-01-11T19:43:04.157Z,50.46
2024-01-11T19:45:37.099Z,50.36
2024-01-11T19:48:13.157Z,50.46
2024-01-11T19:50:43.921Z,50.37
2024-01-11T19:53:17.008Z,50.18
2024-01-11T19:55:47.238Z,50.00
2024-01-11T19:58:25.720Z,49.90
2024-01-11T20:00:55.480Z,50.37
2024-01-11T20:03:31.617Z,50.19
2024-01-11T20:06:04.196Z,50.33
2024-01-11T20:08:39.928Z,50.23
2024-01-11T20:11:14.779Z,50.24
2024-01-11T20:13:49.569Z,50.16
2024-01-11T20:16:24.740Z,50.11
2024-01-11T20:18:57.211Z,50.00
2024-01-11T20:21:29.484Z,49.63
2024-01-11T20:23:59.998Z,49.79
2024-01-11T20:26:30.912Z,49.82
2024-01-11T20:29:03.499Z,49.96
2024-01-11T20:31:32.706Z,50.05
2024-01-11T20:34:07.224Z,49.84
2024-01-11T20:36:40.130Z,50.77
2024-01-11T20:39:15.260Z,50.93
2024-01-11T20:41:54.085Z,51.10
2024-01-11T20:44:26.748Z,51.01
2024-01-11T20:46:59.676Z,50.82
2024-01-11T20:49:32.296Z,51.17
2024-01-11T20:52:07.327Z,51.74
2024-01-11T20:54:41.160Z,51.31
2024-01-11T20:57:10.470Z,51.94
2024-01-11T20:59:45.706Z,51.97
2024-01-11T21:02:19.055Z,52.23
2024-01-11T21:04:51.634Z,52.50
2024-01-11T21:07:26.683Z,52.36
2024-01-11T21:10:04.664Z,52.67
2024-01-11T21:12:39.990Z,52.08
2024-01-11T21:15:12.238Z,52.18
2024-01-11T21:17:47.492Z,52.05
2024-01-11T21:20:20.519Z,52.55
2024-01-11T21:22:52.164Z,52.66
2024-01-11T21:25:31.473Z,52.53
2024-01-11T21:28:05.931Z,52.28
2024-01-11T21:30:36.647Z,53.89
2024-01-11T21:33:08.992Z,54.47
2024-01-11T21:35:44.577Z,54.46
2024-01-11T21:38:17.571Z,54.80
2024-01-11T21:40:52.917Z,55.05
2024-01-11T21:43:25.944Z,54.94
2024-01-11T21:46:00.493Z,55.62
2024-01-11T21:48:30.478Z,55.00
2024-01-11T21:51:05.826Z,55.06
2024-01-11T21:53:38.860Z,55.16
2024-01-11T21:56:11.683Z,55.29
2024-01-11T21:58:46.651Z,54.93
2024-01-11T22:01:22.386Z,55.15
2024-01-11T22:04:00.662Z,55.02
2024-01-11T22:06:35.587Z,55.39
2024-01-11T22:09:07.651Z,55.01
2024-01-11T22:11:42.555Z,55.54
2024-01-11T22:14:14.511Z,55.32
2024-01-11T22:16:46.980Z,55.23
2024-01-11T22:19:16.738Z,55.34
2024-01-11T22:21:43.842Z,55.82
2024-01-11T22:24:21.620Z,55.67
2024-01-11T22:26:53.311Z,55.08
2024-01-11T22:29:23.797Z,56.26
2024-01-11T22:31:58.949Z,56.24
2024-01-11T22:34:32.622Z,56.31
2024-01-11T22:37:08.106Z,56.19
2024-01-11T22:39:45.306Z,56.83
2024-01-11T22:42:21.479Z,56.96
2024-01-11T22:44:51.465Z,56.59
2024-01-11T22:47:29.802Z,56.85
2024-01-11T22:50:05.642Z,56.78
2024-01-11T22:52:37.004Z,56.69
2024-01-11T22:55:11.997Z,56.97
2024-01-11T22:57:42.387Z,56.16
2024-01-11T23:00:24.268Z,57.06
2024-01-11T23:02:56.322Z,56.93
2024-01-11T23:05:33.491Z,56.61
2024-01-11T23:08:09.217Z,56.94
2024-01-11T23:10:44.476Z,57.29
2024-01-11T23:13:17.833Z,57.74
2024-01-11T23:15:45.844Z,57.57
2024-01-11T23:18:21.850Z,58.15
2024-01-11T23:20:57.271Z,57.87
2024-01-11T23:23:29.077Z,58.07
2024-01-11T23:26:02.598Z,59.02
2024-01-11T23:28:36.357Z,58.58
2024-01-11T23:31:07.122Z,58.62
2024-01-11T23:33:43.168Z,58.92
2024-01-11T23:36:16.044Z,58.94
2024-01-11T23:38:54.082Z,58.54
2024-01-11T23:41:29.119Z,58.62
2024-01-11T23:44:04.106Z,58.77
2024-01-11T23:46:37.024Z,59.32
2024-01-11T23:49:09.815Z,59.22
2024-01-11T23:51:43.914Z,59.26
2024-01-11T23:54:17.217Z,59.45
2024-01-11T23:56:58.518Z,60.00
2024-01-11T23:59:33.814Z,59.85
